Time;durP1;ratioP1;P1;durP2;ratioP2;P2;SDS_P1;SDS_P2;PMS_P1;PMS_P2;Temp;Humidity;BMP_temperature;BMP_pressure;BME280_temperature;BME280_humidity;BME280_pressure;Samples;Min_cycle;Max_cycle;Signal;HPM_P1;HPM_P2
2022/11/17 00:00:28;;;;;;;9.27;8.57;;;;;;;7.16;93.84;98945.81;5036784;28;20257;-83
2022/11/17 00:02:54;;;;;;;8.97;8.27;;;;;;;7.19;93.64;98931.06;5036848;28;20216;-83
2022/11/17 00:05:22;;;;;;;9.03;8.33;;;;;;;7.14;93.53;98933.78;5037194;28;20202;-83
2022/11/17 00:07:49;;;;;;;8.40;7.70;;;;;;;7.22;93.73;98924.03;5039639;28;20676;-83
2022/11/17 00:10:16;;;;;;;8.47;7.77;;;;;;;7.22;93.33;98928.38;5039763;28;20222;-82
2022/11/17 00:15:27;;;;;;;7.70;7.20;;;;;;;7.13;92.94;98911.31;5041320;28;20247;-83
2022/11/17 00:21:17;;;;;;;8.10;7.50;;;;;;;7.09;93.71;98914.91;5043129;28;20210;-80
2022/11/17 00:23:45;;;;;;;8.23;7.63;;;;;;;7.10;93.95;98896.69;5037371;28;20291;-82
2022/11/17 00:26:13;;;;;;;7.57;6.97;;;;;;;7.15;93.26;98883.59;5036788;28;20229;-82
2022/11/17 00:28:39;;;;;;;6.93;6.43;;;;;;;7.24;92.63;98895.44;5037224;28;20237;-81
2022/11/17 00:34:05;;;;;;;6.93;6.33;;;;;;;7.27;92.28;98908.31;5036991;28;20205;-82
2022/11/17 00:36:36;;;;;;;7.77;7.10;;;;;;;7.20;92.03;98910.25;5036590;28;20233;-80
2022/11/17 00:39:02;;;;;;;8.10;7.50;;;;;;;7.24;92.49;98913.63;5036381;28;20578;-83
2022/11/17 00:41:29;;;;;;;7.67;7.07;;;;;;;7.20;92.28;98910.25;5035931;28;20209;-81
2022/11/17 00:43:55;;;;;;;7.27;6.67;;;;;;;7.14;92.35;98898.31;5036757;28;20213;-82
2022/11/17 00:46:21;;;;;;;7.90;7.20;;;;;;;7.08;92.86;98895.91;5036603;28;20229;-82
2022/11/17 00:48:48;;;;;;;8.17;7.47;;;;;;;7.15;92.48;98884.47;5036570;28;20359;-82
2022/11/17 00:51:14;;;;;;;8.27;7.57;;;;;;;7.05;92.70;98877.81;5036412;28;20213;-82
2022/11/17 00:53:42;;;;;;;7.30;6.70;;;;;;;7.08;93.14;98856.97;5036660;28;20219;-82
2022/11/17 00:56:09;;;;;;;7.80;7.20;;;;;;;7.09;92.54;98847.44;5036460;28;20245;-81
2022/11/17 00:58:35;;;;;;;8.13;7.43;;;;;;;7.07;91.93;98857.88;5036545;28;20202;-83
2022/11/17 01:01:02;;;;;;;7.97;7.33;;;;;;;6.96;93.01;98850.41;5035654;28;20206;-80
2022/11/17 01:03:28;;;;;;;8.70;8.00;;;;;;;6.92;93.31;98842.78;5036869;28;20232;-80
2022/11/17 01:05:55;;;;;;;7.00;6.40;;;;;;;6.98;93.31;98819.25;5036198;28;20229;-81
2022/11/17 01:08:21;;;;;;;7.30;6.70;;;;;;;6.85;92.68;98831.72;5036205;28;20229;-82
2022/11/17 01:10:49;;;;;;;8.30;7.63;;;;;;;6.82;93.33;98828.38;5035815;28;20233;-81
2022/11/17 01:13:17;;;;;;;7.93;7.13;;;;;;;6.90;93.77;98824.66;5036343;28;20209;-81
2022/11/17 01:15:43;;;;;;;8.10;7.50;;;;;;;6.78;93.27;98835.41;5035611;28;20743;-80
2022/11/17 01:18:10;;;;;;;7.80;7.13;;;;;;;6.82;93.56;98812.81;5035078;28;20224;-82
2022/11/17 01:20:37;;;;;;;8.20;7.57;;;;;;;6.80;93.56;98804.22;5035786;28;20238;-81
2022/11/17 01:23:03;;;;;;;7.23;6.63;;;;;;;6.84;93.43;98803.22;5036203;28;20202;-81
2022/11/17 01:25:30;;;;;;;7.73;7.13;;;;;;;6.92;93.81;98796.09;5036418;28;20226;-82
2022/11/17 01:27:58;;;;;;;7.90;7.20;;;;;;;6.95;92.76;98814.13;5036534;28;20234;-80
2022/11/17 01:30:25;;;;;;;6.60;6.10;;;;;;;6.94;92.86;98812.47;5035677;28;20221;-81
2022/11/17 01:32:51;;;;;;;7.43;6.83;;;;;;;6.96;93.51;98808.91;5035558;28;20209;-81
2022/11/17 01:35:17;;;;;;;7.00;6.47;;;;;;;6.90;92.22;98819.47;5035730;28;20210;-82
2022/11/17 01:37:44;;;;;;;7.77;7.17;;;;;;;6.87;92.77;98829.94;5036474;28;20214;-80
2022/11/17 01:40:13;;;;;;;7.60;6.97;;;;;;;6.96;92.73;98827.06;5035314;28;20627;-83
2022/11/17 01:42:39;;;;;;;7.47;6.87;;;;;;;7.02;91.60;98839.00;5035798;28;20225;-82
2022/11/17 01:45:17;;;;;;;7.30;6.77;;;;;;;6.89;92.26;98827.31;5035714;28;20232;-84
2022/11/17 01:47:47;;;;;;;7.67;7.07;;;;;;;6.83;92.07;98823.13;5036021;28;20267;-82
2022/11/17 01:50:24;;;;;;;6.80;6.20;;;;;;;6.81;92.57;98806.78;5035737;28;20233;-82
2022/11/17 01:52:53;;;;;;;6.87;6.37;;;;;;;6.86;92.69;98815.28;5035528;28;20210;-83
2022/11/17 01:55:23;;;;;;;7.50;6.90;;;;;;;6.92;92.71;98809.06;5035728;28;20206;-83
2022/11/17 01:57:52;;;;;;;7.70;7.00;;;;;;;6.95;92.62;98807.19;5035330;28;20209;-80
2022/11/17 02:00:20;;;;;;;8.70;7.90;;;;;;;6.92;93.05;98799.53;5035377;28;20626;-80
2022/11/17 02:02:48;;;;;;;9.50;8.80;;;;;;;6.93;92.92;98800.38;5035697;28;20210;-81
2022/11/17 02:05:29;;;;;;;9.17;8.47;;;;;;;6.96;92.41;98792.50;5035123;28;20213;-80
2022/11/17 02:08:00;;;;;;;8.87;8.17;;;;;;;6.93;91.97;98806.41;5035416;28;20206;-81
2022/11/17 02:10:30;;;;;;;8.90;8.20;;;;;;;6.88;92.29;98812.66;5036135;28;20226;-80
2022/11/17 02:12:57;;;;;;;8.80;8.10;;;;;;;6.88;91.60;98810.06;5035302;28;20206;-80
2022/11/17 02:15:25;;;;;;;9.13;8.43;;;;;;;6.83;91.65;98809.34;5035637;28;20210;-82
2022/11/17 02:17:53;;;;;;;9.67;8.87;;;;;;;6.78;92.00;98809.47;5035465;28;20210;-81
2022/11/17 02:20:30;;;;;;;8.27;7.67;;;;;;;6.74;92.17;98800.09;5034862;28;20237;-80
2022/11/17 02:23:24;;;;;;;8.93;8.23;;;;;;;6.73;92.87;98785.41;5035853;28;20205;-83
2022/11/17 02:26:21;;;;;;;8.97;8.27;;;;;;;6.68;92.35;98779.50;5035404;28;20234;-82
2022/11/17 02:28:54;;;;;;;8.83;8.13;;;;;;;6.62;93.40;98771.91;5025864;28;20265;-80
2022/11/17 02:31:26;;;;;;;9.40;8.70;;;;;;;6.60;92.71;98763.34;5035287;28;20306;-81
2022/11/17 02:34:02;;;;;;;9.20;8.50;;;;;;;6.65;92.84;98740.72;5035411;28;20219;-80
2022/11/17 02:36:36;;;;;;;8.70;8.10;;;;;;;6.69;92.68;98734.56;5035081;28;20222;-81
2022/11/17 02:39:11;;;;;;;8.77;7.97;;;;;;;6.72;91.33;98748.28;5035717;28;20201;-81
2022/11/17 02:41:46;;;;;;;7.90;7.30;;;;;;;6.73;91.32;98751.72;5034392;28;20603;-81
2022/11/17 02:44:17;;;;;;;7.93;7.33;;;;;;;6.59;91.72;98743.50;5035286;28;20209;-81
2022/11/17 02:46:46;;;;;;;7.73;7.13;;;;;;;6.52;91.57;98740.22;5034971;28;20229;-80
2022/11/17 02:49:19;;;;;;;8.20;7.50;;;;;;;6.51;91.76;98728.19;5034793;28;20213;-80
2022/11/17 02:51:50;;;;;;;7.37;6.80;;;;;;;6.43;92.89;98718.03;5034923;28;20275;-81
2022/11/17 02:54:17;;;;;;;7.03;6.43;;;;;;;6.35;93.24;98714.84;5035766;28;20210;-81
2022/11/17 02:56:44;;;;;;;7.20;6.60;;;;;;;6.30;92.79;98706.34;5035406;28;20244;-83
2022/11/17 02:59:13;;;;;;;6.87;6.37;;;;;;;6.32;92.32;98722.69;5035425;28;20209;-80
2022/11/17 03:02:02;;;;;;;6.43;5.93;;;;;;;6.30;92.04;98725.34;5034423;28;20707;-82
2022/11/17 03:04:43;;;;;;;7.13;6.60;;;;;;;6.26;92.21;98713.34;5035269;28;20220;-82
2022/11/17 03:07:21;;;;;;;7.00;6.50;;;;;;;6.24;92.34;98701.34;5035209;28;20664;-82
2022/11/17 03:10:00;;;;;;;6.90;6.30;;;;;;;6.25;91.69;98706.47;5035051;28;20237;-80
2022/11/17 03:12:34;;;;;;;6.43;5.93;;;;;;;6.17;91.79;98708.44;5035359;28;20212;-83
2022/11/17 03:15:07;;;;;;;7.07;6.47;;;;;;;6.22;92.27;98719.50;5034921;28;20705;-81
2022/11/17 03:17:46;;;;;;;6.63;6.13;;;;;;;6.22;92.55;98710.91;5035408;28;20214;-83
2022/11/17 03:20:16;;;;;;;6.80;6.30;;;;;;;6.21;92.32;98712.66;5035263;28;20209;-81
2022/11/17 03:22:47;;;;;;;7.10;6.57;;;;;;;6.20;91.84;98710.09;5036044;28;20216;-81
2022/11/17 03:25:18;;;;;;;7.07;6.50;;;;;;;6.28;91.12;98718.47;5036257;28;20231;-82
2022/11/17 03:27:47;;;;;;;6.70;6.20;;;;;;;6.24;91.50;98720.31;5036092;28;20218;-82
2022/11/17 03:30:15;;;;;;;7.00;6.40;;;;;;;6.23;91.59;98717.78;5035512;28;20225;-82
2022/11/17 03:32:48;;;;;;;6.63;6.13;;;;;;;6.22;92.33;98716.06;5035725;28;20210;-82
2022/11/17 03:35:18;;;;;;;7.03;6.53;;;;;;;6.24;91.91;98716.88;5036063;28;20212;-82
2022/11/17 03:37:49;;;;;;;7.67;6.90;;;;;;;6.21;90.78;98722.16;5036495;28;20233;-82
2022/11/17 03:40:19;;;;;;;7.10;6.47;;;;;;;6.14;91.12;98709.41;5037303;28;20247;-83
2022/11/17 03:42:51;;;;;;;6.83;6.33;;;;;;;6.20;90.94;98717.88;5039497;28;20209;-82
2022/11/17 03:45:21;;;;;;;7.23;6.73;;;;;;;6.26;91.03;98713.34;5039146;28;20210;-82
2022/11/17 03:47:56;;;;;;;8.10;7.30;;;;;;;6.27;91.52;98702.09;5039738;28;20209;-80
2022/11/17 03:50:30;;;;;;;7.87;7.20;;;;;;;6.30;90.57;98720.16;5039502;28;20228;-83
2022/11/17 03:52:57;;;;;;;7.17;6.67;;;;;;;6.30;90.14;98719.28;5039933;28;20260;-81
2022/11/17 03:55:27;;;;;;;7.90;7.30;;;;;;;6.17;91.42;98708.44;5040092;28;20206;-82
2022/11/17 03:57:59;;;;;;;7.50;6.87;;;;;;;6.16;91.34;98694.66;5039607;28;20228;-82
2022/11/17 04:00:26;;;;;;;8.40;7.63;;;;;;;6.13;91.88;98688.72;5038975;28;20209;-82
2022/11/17 04:02:57;;;;;;;8.40;7.80;;;;;;;6.11;91.59;98680.13;5039622;28;20207;-83
2022/11/17 04:05:24;;;;;;;9.50;8.80;;;;;;;6.08;91.98;98664.66;5039803;28;20213;-82
2022/11/17 04:07:50;;;;;;;7.83;7.23;;;;;;;6.12;91.33;98655.91;5039837;28;20206;-82
2022/11/17 04:10:20;;;;;;;8.83;8.13;;;;;;;6.14;91.54;98661.91;5043972;28;20232;-81
2022/11/17 04:18:18;;;;;;;8.73;8.03;;;;;;;6.07;92.24;98643.09;5038559;28;20214;-81
2022/11/17 04:20:45;;;;;;;9.57;8.67;;;;;;;6.09;92.43;98628.38;5037943;28;20208;-81
2022/11/17 04:23:13;;;;;;;8.80;8.20;;;;;;;6.10;92.54;98629.22;5038535;28;20217;-83
2022/11/17 04:28:36;;;;;;;8.30;7.70;;;;;;;6.18;91.82;98636.75;5038538;28;20336;-83
2022/11/17 04:31:03;;;;;;;9.13;8.43;;;;;;;6.04;92.21;98643.19;5038021;28;20229;-81
2022/11/17 04:33:31;;;;;;;8.03;7.37;;;;;;;6.03;92.62;98632.91;5038041;28;20585;-83
2022/11/17 04:35:57;;;;;;;8.27;7.67;;;;;;;6.11;91.87;98616.22;5038182;28;20229;-83
2022/11/17 04:38:24;;;;;;;7.97;7.27;;;;;;;6.14;91.65;98621.31;5037882;28;20214;-83
2022/11/17 04:43:31;;;;;;;8.23;7.63;;;;;;;6.08;91.80;98608.53;5004530;28;20214;-82
2022/11/17 04:45:59;;;;;;;8.23;7.60;;;;;;;6.14;91.30;98610.97;5037390;28;20610;-83
2022/11/17 04:48:25;;;;;;;8.47;7.83;;;;;;;6.15;91.54;98616.97;5037269;28;20248;-83
2022/11/17 04:50:54;;;;;;;8.90;8.10;;;;;;;6.07;91.67;98622.38;5037635;28;20228;-82
2022/11/17 04:53:21;;;;;;;8.97;8.20;;;;;;;6.05;92.61;98593.09;5037813;28;20212;-81
2022/11/17 04:55:48;;;;;;;9.13;8.33;;;;;;;6.09;92.70;98583.50;5037349;28;20234;-80
2022/11/17 04:58:14;;;;;;;8.70;8.00;;;;;;;6.04;92.61;98596.56;5037902;28;20229;-81
2022/11/17 05:00:41;;;;;;;8.83;8.13;;;;;;;6.01;92.82;98580.28;5036526;28;20213;-81
2022/11/17 05:03:08;;;;;;;9.60;8.83;;;;;;;6.02;92.63;98582.81;5037605;28;20213;-81
2022/11/17 05:05:34;;;;;;;8.10;7.50;;;;;;;6.00;92.20;98558.72;5037660;28;20654;-82
2022/11/17 05:08:02;;;;;;;8.50;7.80;;;;;;;6.00;92.70;98565.63;5037114;28;20296;-83
2022/11/17 05:18:43;;;;;;;9.40;8.70;;;;;;;5.99;92.76;98548.41;5037075;28;20212;-81
2022/11/17 05:21:11;;;;;;;9.43;8.63;;;;;;;5.99;93.27;98545.84;5036479;28;20206;-82
2022/11/17 05:23:53;;;;;;;10.20;9.40;;;;;;;5.97;92.99;98540.69;5037024;28;20699;-83
2022/11/17 05:26:20;;;;;;;9.93;9.13;;;;;;;5.94;93.35;98539.00;5037162;28;20269;-82
2022/11/17 05:28:47;;;;;;;9.73;9.03;;;;;;;6.03;93.56;98537.06;5036887;28;20217;-79
2022/11/17 05:31:14;;;;;;;8.53;7.93;;;;;;;6.03;92.94;98543.09;5037082;28;20229;-80
2022/11/17 05:33:41;;;;;;;9.13;8.43;;;;;;;6.07;92.42;98554.22;5037869;28;20202;-81
2022/11/17 05:36:08;;;;;;;9.30;8.60;;;;;;;6.00;92.40;98550.09;5037156;28;20230;-80
2022/11/17 05:38:35;;;;;;;8.93;8.23;;;;;;;6.01;92.98;98552.66;5036885;28;20210;-81
2022/11/17 05:41:02;;;;;;;7.90;7.30;;;;;;;6.07;92.81;98549.03;5036363;28;20699;-83
2022/11/17 05:43:29;;;;;;;7.20;6.70;;;;;;;5.97;92.89;98546.72;5036669;28;20500;-82
2022/11/17 05:45:55;;;;;;;7.80;7.10;;;;;;;6.00;91.77;98542.34;5035963;28;20232;-82
2022/11/17 05:48:22;;;;;;;6.77;6.27;;;;;;;5.99;92.42;98546.66;5036737;28;20217;-83
2022/11/17 05:50:51;;;;;;;6.03;5.57;;;;;;;5.95;92.38;98551.09;5035213;28;20238;-82
2022/11/17 05:53:18;;;;;;;6.80;6.13;;;;;;;5.88;92.87;98538.34;5036491;28;20209;-83
2022/11/17 05:55:44;;;;;;;6.33;5.93;;;;;;;5.88;92.48;98541.78;5061984;22;20249;-78
2022/11/17 05:58:17;;;;;;;5.90;5.40;;;;;;;5.82;92.18;98539.38;5054525;28;20228;-79
2022/11/17 06:00:44;;;;;;;6.10;5.70;;;;;;;5.89;93.08;98530.53;5052268;28;20205;-80
2022/11/17 06:03:18;;;;;;;5.60;5.10;;;;;;;5.89;92.34;98545.22;5044761;28;20197;-80
2022/11/17 06:05:45;;;;;;;5.80;5.40;;;;;;;5.94;92.16;98546.75;5044797;28;20197;-81
2022/11/17 06:08:11;;;;;;;5.63;5.20;;;;;;;5.92;91.88;98551.13;5049185;28;20208;-80
2022/11/17 06:10:37;;;;;;;5.50;5.10;;;;;;;5.82;92.35;98560.09;5047742;28;20214;-80
2022/11/17 06:13:04;;;;;;;5.87;5.43;;;;;;;5.80;92.45;98537.72;5046306;28;20203;-80
2022/11/17 06:15:32;;;;;;;6.10;5.60;;;;;;;5.85;91.94;98525.50;5049691;28;20202;-79
2022/11/17 06:18:02;;;;;;;5.73;5.33;;;;;;;5.75;92.88;98520.59;5043647;28;20223;-80
2022/11/17 06:20:33;;;;;;;5.97;5.57;;;;;;;5.75;93.09;98510.25;5045580;28;20200;-80
2022/11/17 06:23:02;;;;;;;6.77;6.27;;;;;;;5.69;93.70;98502.66;5041404;28;20770;-79
2022/11/17 06:25:29;;;;;;;7.47;6.87;;;;;;;5.65;94.00;98493.31;5046909;28;20226;-80
2022/11/17 06:27:58;;;;;;;7.73;7.13;;;;;;;5.75;94.16;98470.56;5046432;28;20212;-79
2022/11/17 06:30:24;;;;;;;8.97;8.20;;;;;;;5.67;94.86;98470.81;5042531;28;20220;-79
2022/11/17 06:32:55;;;;;;;8.47;7.80;;;;;;;5.73;94.63;98455.09;5046329;28;20289;-80
2022/11/17 06:35:22;;;;;;;9.00;8.03;;;;;;;5.71;94.53;98456.03;5041175;28;20218;-79
2022/11/17 06:37:49;;;;;;;7.93;7.20;;;;;;;5.66;95.30;98453.56;5045903;28;20226;-79
2022/11/17 06:40:15;;;;;;;8.70;8.00;;;;;;;5.70;94.13;98452.56;5042595;28;20664;-79
2022/11/17 06:45:27;;;;;;;7.33;6.60;;;;;;;5.64;95.80;98439.81;5042625;28;20679;-80
2022/11/17 06:47:55;;;;;;;6.87;6.33;;;;;;;5.56;95.91;98427.13;5045333;28;20224;-80
2022/11/17 06:50:21;;;;;;;6.67;6.23;;;;;;;5.52;96.58;98424.69;5042663;28;20227;-81
2022/11/17 06:52:48;;;;;;;7.50;6.90;;;;;;;5.49;96.38;98417.88;5045288;28;20212;-79
2022/11/17 06:55:14;;;;;;;7.20;6.60;;;;;;;5.56;96.65;98416.78;5050832;28;20219;-81
2022/11/17 06:57:40;;;;;;;7.30;6.73;;;;;;;5.54;96.16;98408.22;5044232;28;20236;-80
2022/11/17 07:00:08;;;;;;;8.10;7.50;;;;;;;5.60;96.29;98421.88;5050795;28;20202;-79
2022/11/17 07:02:36;;;;;;;7.77;7.17;;;;;;;5.67;96.08;98423.34;5049519;28;20196;-79
2022/11/17 07:05:04;;;;;;;7.93;7.33;;;;;;;5.67;96.23;98419.03;5047511;28;20222;-79
2022/11/17 07:07:30;;;;;;;9.00;8.30;;;;;;;5.61;96.71;98410.59;5045370;28;20349;-79
2022/11/17 07:09:57;;;;;;;9.13;8.43;;;;;;;5.61;96.43;98408.00;5050315;28;20202;-80
2022/11/17 07:12:23;;;;;;;8.07;7.47;;;;;;;5.64;96.31;98413.09;5050685;28;20235;-80
2022/11/17 07:14:49;;;;;;;8.40;7.70;;;;;;;5.61;96.72;98408.00;5050659;28;20206;-80
2022/11/17 07:17:16;;;;;;;6.70;6.20;;;;;;;5.56;96.68;98405.59;5052803;28;20229;-79
2022/11/17 07:19:42;;;;;;;7.13;6.43;;;;;;;5.57;96.28;98397.78;5053977;28;20206;-80
2022/11/17 07:22:10;;;;;;;7.07;6.50;;;;;;;5.57;95.21;98418.47;5052089;28;20205;-80
2022/11/17 07:24:36;;;;;;;6.57;5.97;;;;;;;5.57;96.20;98409.88;5048768;28;20697;-79
2022/11/17 07:27:05;;;;;;;6.60;6.00;;;;;;;5.52;95.77;98412.59;5051456;28;20220;-82
2022/11/17 07:29:31;;;;;;;6.93;6.33;;;;;;;5.51;96.24;98399.69;5050892;28;20631;-80
2022/11/17 07:31:58;;;;;;;6.50;6.00;;;;;;;5.57;96.29;98404.69;5047232;28;20233;-79
2022/11/17 07:34:24;;;;;;;13.20;12.20;;;;;;;5.58;95.84;98408.97;5048395;28;20204;-83
2022/11/17 07:36:51;;;;;;;7.17;6.57;;;;;;;5.55;95.79;98401.31;5049744;28;20230;-80
2022/11/17 07:39:18;;;;;;;6.60;6.10;;;;;;;5.56;95.76;98388.31;5047965;28;20588;-81
2022/11/17 07:41:45;;;;;;;6.83;6.33;;;;;;;5.53;96.36;98392.72;5047895;28;20194;-80
2022/11/17 07:44:11;;;;;;;6.87;6.27;;;;;;;5.50;96.33;98395.44;5048247;28;20195;-80
2022/11/17 07:46:38;;;;;;;7.37;6.77;;;;;;;5.45;96.72;98374.88;5047652;28;20221;-80
2022/11/17 07:49:04;;;;;;;8.10;7.33;;;;;;;5.46;97.57;98366.22;5051651;28;20201;-80
2022/11/17 07:51:30;;;;;;;6.77;6.17;;;;;;;5.53;96.84;98353.91;5050314;28;20230;-80
2022/11/17 07:53:57;;;;;;;7.20;6.60;;;;;;;5.46;96.80;98361.03;5051286;28;20201;-81
2022/11/17 07:56:25;;;;;;;7.00;6.40;;;;;;;5.42;97.18;98343.91;5050087;28;20235;-81
2022/11/17 07:58:53;;;;;;;6.17;5.67;;;;;;;5.46;97.88;98337.75;5053853;28;20214;-82
2022/11/17 08:01:19;;;;;;;6.27;5.80;;;;;;;5.50;97.20;98320.38;5048905;28;20214;-82
2022/11/17 08:03:46;;;;;;;5.57;5.07;;;;;;;5.47;97.75;98317.88;5049189;28;20205;-82
2022/11/17 08:06:12;;;;;;;5.00;4.60;;;;;;;5.46;96.68;98324.81;5052031;28;20220;-82
2022/11/17 08:08:39;;;;;;;5.00;4.60;;;;;;;5.50;96.44;98334.16;5049456;28;20190;-81
2022/11/17 08:11:07;;;;;;;5.07;4.67;;;;;;;5.48;96.79;98346.31;5051934;28;20226;-80
2022/11/17 08:13:35;;;;;;;5.13;4.73;;;;;;;5.41;97.15;98336.19;5049576;28;20220;-81
2022/11/17 08:16:02;;;;;;;5.07;4.67;;;;;;;5.35;97.68;98337.22;5047878;28;20601;-80
2022/11/17 08:18:29;;;;;;;5.13;4.73;;;;;;;5.37;97.50;98322.50;5049053;28;20205;-80
2022/11/17 08:21:02;;;;;;;5.63;5.23;;;;;;;5.42;97.64;98319.78;5050511;28;20207;-78
2022/11/17 08:23:28;;;;;;;5.70;5.20;;;;;;;5.47;96.11;98325.66;5043183;28;20202;-80
2022/11/17 08:25:55;;;;;;;7.25;6.72;;;;;;;5.51;95.42;98347.94;5036110;28;20437;-80
2022/11/17 08:28:21;;;;;;;5.97;5.47;;;;;;;5.57;96.03;98352.94;5040735;28;20206;-82
2022/11/17 08:30:50;;;;;;;6.63;6.03;;;;;;;5.55;95.22;98357.31;5039771;28;20213;-81
2022/11/17 08:33:16;;;;;;;6.37;5.87;;;;;;;5.50;95.66;98362.63;5038693;28;20721;-79
2022/11/17 08:35:43;;;;;;;6.80;6.20;;;;;;;5.55;95.03;98354.75;5040204;28;20219;-80
2022/11/17 08:38:10;;;;;;;7.17;6.47;;;;;;;5.50;94.84;98359.19;5041767;28;20202;-80
2022/11/17 08:40:37;;;;;;;7.10;6.50;;;;;;;5.50;96.26;98351.44;5038075;28;20204;-80
2022/11/17 08:43:04;;;;;;;6.23;5.60;;;;;;;5.45;96.06;98348.13;5039059;28;20205;-82
2022/11/17 08:45:31;;;;;;;6.50;6.00;;;;;;;5.53;96.19;98349.59;5039513;28;20213;-81
2022/11/17 08:47:59;;;;;;;6.53;6.00;;;;;;;5.50;96.21;98361.78;5038875;28;20785;-81
2022/11/17 08:50:26;;;;;;;7.20;6.60;;;;;;;5.52;96.57;98349.66;5039913;28;20293;-81
2022/11/17 08:52:53;;;;;;;6.30;5.80;;;;;;;5.55;96.69;98355.56;5039043;28;20235;-81
2022/11/17 08:55:19;;;;;;;7.10;6.50;;;;;;;5.56;96.17;98346.91;5040241;28;20566;-82
2022/11/17 08:57:46;;;;;;;6.00;5.50;;;;;;;5.61;96.41;98351.06;5040051;28;20401;-82
2022/11/17 09:00:15;;;;;;;5.73;5.27;;;;;;;5.57;96.42;98347.78;5039866;28;20210;-84
2022/11/17 09:02:41;;;;;;;6.03;5.53;;;;;;;5.56;96.15;98333.97;5040716;28;20209;-82
2022/11/17 09:05:09;;;;;;;6.93;6.40;;;;;;;5.61;96.37;98340.72;5040417;28;20210;-83
2022/11/17 09:07:36;;;;;;;8.53;5.60;;;;;;;5.60;95.19;98331.28;5038468;28;20225;-84
2022/11/17 09:10:05;;;;;;;6.40;5.90;;;;;;;5.57;95.86;98351.19;5037643;28;20703;-82
2022/11/17 09:12:31;;;;;;;5.83;5.33;;;;;;;5.51;95.45;98346.22;5037320;28;20235;-82
2022/11/17 09:14:58;;;;;;;5.80;5.30;;;;;;;5.50;95.80;98359.19;5039049;28;20209;-82
2022/11/17 09:17:24;;;;;;;5.90;5.40;;;;;;;5.46;96.03;98358.44;5038924;28;20231;-81
2022/11/17 09:19:51;;;;;;;5.60;5.10;;;;;;;5.49;96.12;98373.88;5036078;28;20236;-79
2022/11/17 09:22:18;;;;;;;5.67;5.07;;;;;;;5.48;96.05;98376.53;5035087;28;20213;-81
2022/11/17 09:24:45;;;;;;;5.30;4.80;;;;;;;5.40;95.84;98373.31;5035363;28;20203;-81
2022/11/17 09:27:12;;;;;;;5.17;4.77;;;;;;;5.37;96.79;98348.38;5034571;28;20236;-80
2022/11/17 09:29:38;;;;;;;5.73;5.23;;;;;;;5.41;97.16;98343.97;5035553;28;20216;-82
2022/11/17 09:32:05;;;;;;;5.50;5.00;;;;;;;5.42;96.83;98349.09;5044730;28;20225;-82
2022/11/17 09:34:31;;;;;;;5.73;5.23;;;;;;;5.46;96.28;98367.97;5046568;28;20566;-81
2022/11/17 09:36:58;;;;;;;5.80;5.30;;;;;;;5.46;95.94;98375.72;5043743;28;20707;-82
2022/11/17 09:39:26;;;;;;;5.30;4.90;;;;;;;5.51;95.70;98397.09;5041639;28;20197;-81
2022/11/17 09:41:54;;;;;;;5.70;5.23;;;;;;;5.43;96.58;98383.56;5013763;28;20202;-81
2022/11/17 09:44:38;;;;;;;5.87;5.37;;;;;;;5.41;96.60;98367.25;5013797;28;20217;-82
2022/11/17 09:47:15;;;;;;;6.57;5.97;;;;;;;5.38;96.98;98347.50;5013860;28;20240;-81
2022/11/17 09:49:50;;;;;;;5.60;5.10;;;;;;;5.42;96.95;98338.75;5013134;28;20699;-81
2022/11/17 09:52:20;;;;;;;5.50;5.00;;;;;;;5.43;97.21;98326.66;5013318;28;20229;-80
2022/11/17 09:54:53;;;;;;;6.37;5.70;;;;;;;5.46;97.40;98322.22;5013778;28;20220;-82
2022/11/17 09:57:25;;;;;;;5.57;5.07;;;;;;;5.49;96.74;98339.38;5013858;28;20241;-82
2022/11/17 10:00:02;;;;;;;5.20;4.73;;;;;;;5.52;96.50;98347.91;5014078;28;20684;-81
2022/11/17 10:02:29;;;;;;;6.23;5.00;;;;;;;5.62;96.22;98352.78;5013816;28;20208;-82
2022/11/17 10:04:55;;;;;;;5.17;4.83;;;;;;;5.63;96.28;98362.22;5014313;28;20214;-82
2022/11/17 10:07:22;;;;;;;5.77;4.93;;;;;;;5.61;96.43;98358.84;5013453;28;20230;-80
2022/11/17 10:09:52;;;;;;;4.90;4.50;;;;;;;5.61;96.42;98366.59;5013099;28;20271;-84
2022/11/17 10:12:21;;;;;;;5.07;4.67;;;;;;;5.63;95.94;98344.09;5013822;28;20236;-82
2022/11/17 10:14:49;;;;;;;5.43;5.00;;;;;;;5.71;96.74;98347.31;5014230;28;20255;-81
2022/11/17 10:17:15;;;;;;;5.00;4.60;;;;;;;5.78;96.78;98348.78;5029173;28;20231;-82
2022/11/17 10:19:44;;;;;;;4.77;4.40;;;;;;;5.88;95.42;98357.94;5033742;28;20217;-82
2022/11/17 10:22:20;;;;;;;4.87;4.47;;;;;;;5.85;94.99;98375.34;5032431;28;20240;-81
2022/11/17 10:24:49;;;;;;;4.73;4.33;;;;;;;5.86;95.36;98370.09;5032827;28;20894;-80
2022/11/17 10:27:23;;;;;;;4.73;4.33;;;;;;;5.88;95.26;98370.88;5032430;28;20324;-82
2022/11/17 10:29:57;;;;;;;4.47;4.10;;;;;;;5.85;95.98;98367.56;5032606;28;20208;-82
2022/11/17 10:32:24;;;;;;;4.03;3.73;;;;;;;5.92;95.14;98351.75;5032692;28;20228;-81
2022/11/17 10:34:51;;;;;;;4.47;4.07;;;;;;;5.89;94.35;98370.00;5033282;28;20296;-79
2022/11/17 10:37:35;;;;;;;3.97;3.67;;;;;;;5.82;95.79;98352.97;5033811;28;20233;-82
2022/11/17 10:40:17;;;;;;;4.33;3.57;;;;;;;5.82;96.15;98334.00;5032082;28;20220;-80
2022/11/17 10:42:56;;;;;;;4.50;4.13;;;;;;;5.84;95.37;98337.38;5032835;28;20215;-81
2022/11/17 10:45:23;;;;;;;4.77;4.37;;;;;;;5.82;95.51;98331.41;5035443;28;20244;-82
2022/11/17 10:47:50;;;;;;;3.70;3.40;;;;;;;5.82;96.40;98329.66;5036213;28;20607;-81
2022/11/17 10:50:22;;;;;;;3.93;3.63;;;;;;;5.81;95.50;98328.00;5037160;28;20205;-82
2022/11/17 10:52:50;;;;;;;4.17;3.87;;;;;;;5.74;96.63;98310.97;5035952;28;20226;-81
2022/11/17 10:55:23;;;;;;;3.97;3.67;;;;;;;5.77;97.08;98298.75;5036491;28;20216;-81
2022/11/17 10:57:53;;;;;;;4.37;4.07;;;;;;;5.74;97.25;98285.06;5037084;28;20246;-81
2022/11/17 11:00:28;;;;;;;5.33;3.80;;;;;;;5.84;97.87;98277.84;5037385;28;20213;-81
2022/11/17 11:03:17;;;;;;;4.17;3.87;;;;;;;5.84;96.85;98280.44;5037749;28;20205;-81
2022/11/17 11:05:58;;;;;;;4.13;3.83;;;;;;;5.88;96.50;98292.38;5035546;28;20248;-83
2022/11/17 11:08:29;;;;;;;3.63;3.33;;;;;;;5.89;96.63;98286.31;5035715;28;20217;-82
2022/11/17 11:10:58;;;;;;;3.80;3.50;;;;;;;5.96;96.53;98292.97;5035607;28;20224;-83
2022/11/17 11:13:32;;;;;;;3.70;3.47;;;;;;;5.94;97.17;98290.41;5036082;28;20228;-83
2022/11/17 11:15:59;;;;;;;3.63;3.37;;;;;;;5.92;96.68;98294.78;5035462;28;20241;-83
2022/11/17 11:18:28;;;;;;;3.67;3.37;;;;;;;5.86;96.56;98286.41;5035654;28;20698;-83
2022/11/17 11:21:04;;;;;;;3.33;3.10;;;;;;;5.81;97.16;98273.63;5035079;28;20675;-82
2022/11/17 11:23:39;;;;;;;3.70;3.40;;;;;;;5.86;97.46;98266.53;5035410;28;20202;-82
2022/11/17 11:26:18;;;;;;;4.07;3.77;;;;;;;5.94;97.02;98266.25;5035794;28;20747;-82
2022/11/17 11:29:00;;;;;;;3.80;3.50;;;;;;;6.01;97.21;98266.94;5036751;28;20212;-81
2022/11/17 11:31:34;;;;;;;3.60;3.30;;;;;;;6.10;96.43;98275.19;5036810;28;20699;-82
2022/11/17 11:34:14;;;;;;;5.77;3.73;;;;;;;6.07;96.25;98288.28;5037366;28;20210;-82
2022/11/17 11:36:44;;;;;;;3.63;3.33;;;;;;;6.12;96.48;98301.06;5034921;28;20231;-82
2022/11/17 11:39:22;;;;;;;3.87;3.63;;;;;;;6.16;95.82;98290.56;5035337;28;20213;-82
2022/11/17 11:42:08;;;;;;;3.50;3.30;;;;;;;6.15;96.52;98288.00;5035363;28;20209;-83
2022/11/17 11:44:57;;;;;;;3.30;3.10;;;;;;;6.14;96.28;98299.25;5035511;28;20746;-82
2022/11/17 11:47:38;;;;;;;3.20;3.00;;;;;;;6.20;97.24;98288.66;5035372;28;20232;-82
2022/11/17 11:50:12;;;;;;;3.20;3.00;;;;;;;6.21;95.98;98298.16;5035853;28;20212;-82
2022/11/17 11:52:45;;;;;;;3.63;3.33;;;;;;;6.18;96.63;98292.22;5034053;28;20232;-82
2022/11/17 11:55:19;;;;;;;2.73;2.53;;;;;;;6.21;96.04;98308.50;5036494;28;20585;-82
2022/11/17 12:00:17;;;;;;;3.13;2.93;;;;;;;6.16;95.76;98320.75;5012050;28;20215;-84
2022/11/17 12:02:55;;;;;;;6.20;3.18;;;;;;;6.27;95.16;98323.00;4542179;28;10002854;-83
2022/11/17 12:05:32;;;;;;;3.50;3.20;;;;;;;6.21;95.62;98330.97;5015513;28;20618;-83
2022/11/17 12:08:07;;;;;;;2.80;2.60;;;;;;;6.20;96.29;98311.16;5016118;28;20261;-82
2022/11/17 12:10:39;;;;;;;3.17;2.97;;;;;;;6.24;96.67;98310.97;5016024;28;20208;-81
2022/11/17 12:13:06;;;;;;;2.90;2.60;;;;;;;6.30;96.51;98308.19;5017071;28;20233;-85
2022/11/17 12:15:39;;;;;;;3.70;3.40;;;;;;;6.38;96.13;98307.88;5017521;28;20211;-84
2022/11/17 12:18:13;;;;;;;2.73;2.53;;;;;;;6.29;96.04;98329.81;5015420;28;20227;-84
2022/11/17 12:21:00;;;;;;;3.07;2.83;;;;;;;6.35;95.78;98324.41;5014554;28;20210;-83
2022/11/17 12:23:48;;;;;;;2.87;2.67;;;;;;;6.39;96.27;98330.31;5015959;28;20268;-83
2022/11/17 12:26:28;;;;;;;3.00;2.80;;;;;;;6.41;95.23;98341.47;5015756;28;20743;-81